sensor_id;sensor_type;location;lat;lon;timestamp;temperature;humidity
49765;DHT22;35657;51.204;-4.130;2023-03-26T00:00:54;10.20;99.90
49765;DHT22;35657;51.204;-4.130;2023-03-26T00:03:21;10.20;99.90
49765;DHT22;35657;51.204;-4.130;2023-03-26T00:05:48;10.20;99.90
49765;DHT22;35657;51.204;-4.130;2023-03-26T00:08:15;10.20;99.90
49765;DHT22;35657;51.204;-4.130;2023-03-26T00:10:41;10.20;99.90
49765;DHT22;35657;51.204;-4.130;2023-03-26T00:13:09;10.10;99.90
49765;DHT22;35657;51.204;-4.130;2023-03-26T00:15:36;10.10;99.90
49765;DHT22;35657;51.204;-4.130;2023-03-26T00:18:02;10.00;99.90
49765;DHT22;35657;51.204;-4.130;2023-03-26T00:20:29;10.00;99.90
49765;DHT22;35657;51.204;-4.130;2023-03-26T00:22:57;10.00;99.90
49765;DHT22;35657;51.204;-4.130;2023-03-26T00:25:26;10.00;99.90
49765;DHT22;35657;51.204;-4.130;2023-03-26T00:27:52;10.00;99.90
49765;DHT22;35657;51.204;-4.130;2023-03-26T00:30:18;10.00;99.90
49765;DHT22;35657;51.204;-4.130;2023-03-26T00:32:44;10.00;99.90
49765;DHT22;35657;51.204;-4.130;2023-03-26T00:35:10;10.00;99.90
49765;DHT22;35657;51.204;-4.130;2023-03-26T00:37:37;9.90;99.90
49765;DHT22;35657;51.204;-4.130;2023-03-26T00:40:07;9.90;99.90
49765;DHT22;35657;51.204;-4.130;2023-03-26T00:42:37;9.80;99.90
49765;DHT22;35657;51.204;-4.130;2023-03-26T00:45:07;10.00;99.90
49765;DHT22;35657;51.204;-4.130;2023-03-26T00:47:33;10.00;99.90
49765;DHT22;35657;51.204;-4.130;2023-03-26T00:49:59;10.00;99.90
49765;DHT22;35657;51.204;-4.130;2023-03-26T00:52:25;9.90;99.90
49765;DHT22;35657;51.204;-4.130;2023-03-26T00:54:53;9.90;99.90
49765;DHT22;35657;51.204;-4.130;2023-03-26T00:57:19;10.10;99.90
49765;DHT22;35657;51.204;-4.130;2023-03-26T00:59:47;10.20;99.90
49765;DHT22;35657;51.204;-4.130;2023-03-26T01:02:17;10.20;99.90
49765;DHT22;35657;51.204;-4.130;2023-03-26T01:04:51;10.10;99.90
49765;DHT22;35657;51.204;-4.130;2023-03-26T01:07:21;10.20;99.90
49765;DHT22;35657;51.204;-4.130;2023-03-26T01:09:55;10.20;99.90
49765;DHT22;35657;51.204;-4.130;2023-03-26T01:12:26;10.20;99.90
49765;DHT22;35657;51.204;-4.130;2023-03-26T01:14:55;10.20;99.90
49765;DHT22;35657;51.204;-4.130;2023-03-26T01:17:21;10.20;99.90
49765;DHT22;35657;51.204;-4.130;2023-03-26T01:19:57;10.10;99.90
49765;DHT22;35657;51.204;-4.130;2023-03-26T01:22:37;10.10;99.90
49765;DHT22;35657;51.204;-4.130;2023-03-26T01:25:04;10.10;99.90
49765;DHT22;35657;51.204;-4.130;2023-03-26T01:39:00;9.80;99.90
49765;DHT22;35657;51.204;-4.130;2023-03-26T01:41:33;9.70;99.90
49765;DHT22;35657;51.204;-4.130;2023-03-26T01:46:35;9.80;99.90
49765;DHT22;35657;51.204;-4.130;2023-03-26T01:49:02;9.80;99.90
49765;DHT22;35657;51.204;-4.130;2023-03-26T01:51:33;9.70;99.90
49765;DHT22;35657;51.204;-4.130;2023-03-26T01:54:04;9.70;99.90
49765;DHT22;35657;51.204;-4.130;2023-03-26T02:07:06;9.70;99.90
49765;DHT22;35657;51.204;-4.130;2023-03-26T02:09:44;9.80;99.90
49765;DHT22;35657;51.204;-4.130;2023-03-26T02:12:12;9.70;99.90
49765;DHT22;35657;51.204;-4.130;2023-03-26T02:14:38;9.70;99.90
49765;DHT22;35657;51.204;-4.130;2023-03-26T02:17:06;9.70;99.90
49765;DHT22;35657;51.204;-4.130;2023-03-26T02:19:35;9.70;99.90
49765;DHT22;35657;51.204;-4.130;2023-03-26T02:22:01;9.70;99.90
49765;DHT22;35657;51.204;-4.130;2023-03-26T02:24:27;9.70;99.90
49765;DHT22;35657;51.204;-4.130;2023-03-26T02:26:52;9.70;99.90
49765;DHT22;35657;51.204;-4.130;2023-03-26T02:29:18;9.70;99.90
49765;DHT22;35657;51.204;-4.130;2023-03-26T02:31:48;9.70;99.90
49765;DHT22;35657;51.204;-4.130;2023-03-26T02:34:14;9.70;99.90
49765;DHT22;35657;51.204;-4.130;2023-03-26T02:36:40;9.70;99.90
49765;DHT22;35657;51.204;-4.130;2023-03-26T02:39:08;9.70;99.90
49765;DHT22;35657;51.204;-4.130;2023-03-26T02:41:36;9.80;99.90
49765;DHT22;35657;51.204;-4.130;2023-03-26T02:44:03;9.80;99.90
49765;DHT22;35657;51.204;-4.130;2023-03-26T02:46:31;9.90;99.90
49765;DHT22;35657;51.204;-4.130;2023-03-26T02:48:56;10.00;99.90
49765;DHT22;35657;51.204;-4.130;2023-03-26T02:51:23;10.10;99.90
49765;DHT22;35657;51.204;-4.130;2023-03-26T02:53:49;10.10;99.90
49765;DHT22;35657;51.204;-4.130;2023-03-26T02:56:18;10.10;99.90
49765;DHT22;35657;51.204;-4.130;2023-03-26T02:58:44;10.10;99.90
49765;DHT22;35657;51.204;-4.130;2023-03-26T03:01:11;10.10;99.90
49765;DHT22;35657;51.204;-4.130;2023-03-26T03:03:37;10.10;99.90
49765;DHT22;35657;51.204;-4.130;2023-03-26T03:06:03;9.90;99.90
49765;DHT22;35657;51.204;-4.130;2023-03-26T03:08:29;9.90;99.90
49765;DHT22;35657;51.204;-4.130;2023-03-26T03:11:05;9.80;99.90
49765;DHT22;35657;51.204;-4.130;2023-03-26T03:13:31;9.80;99.90
49765;DHT22;35657;51.204;-4.130;2023-03-26T03:15:57;9.70;99.90
49765;DHT22;35657;51.204;-4.130;2023-03-26T03:18:23;9.70;99.90
49765;DHT22;35657;51.204;-4.130;2023-03-26T03:20:49;9.70;99.90
49765;DHT22;35657;51.204;-4.130;2023-03-26T03:23:14;9.70;99.90
49765;DHT22;35657;51.204;-4.130;2023-03-26T03:25:41;9.70;99.90
49765;DHT22;35657;51.204;-4.130;2023-03-26T03:28:07;9.60;99.90
49765;DHT22;35657;51.204;-4.130;2023-03-26T03:30:33;9.60;99.90
49765;DHT22;35657;51.204;-4.130;2023-03-26T03:32:59;9.60;99.90
49765;DHT22;35657;51.204;-4.130;2023-03-26T03:35:27;9.60;99.90
49765;DHT22;35657;51.204;-4.130;2023-03-26T03:37:57;9.60;99.90
49765;DHT22;35657;51.204;-4.130;2023-03-26T03:40:23;9.60;99.90
49765;DHT22;35657;51.204;-4.130;2023-03-26T03:42:49;9.60;99.90
49765;DHT22;35657;51.204;-4.130;2023-03-26T03:45:15;9.60;99.90
49765;DHT22;35657;51.204;-4.130;2023-03-26T03:47:41;9.60;99.90
49765;DHT22;35657;51.204;-4.130;2023-03-26T03:50:07;9.60;99.90
49765;DHT22;35657;51.204;-4.130;2023-03-26T03:52:33;9.60;99.90
49765;DHT22;35657;51.204;-4.130;2023-03-26T03:54:59;9.60;99.90
49765;DHT22;35657;51.204;-4.130;2023-03-26T03:57:26;9.60;99.90
49765;DHT22;35657;51.204;-4.130;2023-03-26T03:59:52;9.60;99.90
49765;DHT22;35657;51.204;-4.130;2023-03-26T04:02:18;9.60;99.90
49765;DHT22;35657;51.204;-4.130;2023-03-26T04:04:59;9.60;99.90
49765;DHT22;35657;51.204;-4.130;2023-03-26T04:07:27;9.60;99.90
49765;DHT22;35657;51.204;-4.130;2023-03-26T04:09:55;9.60;99.90
49765;DHT22;35657;51.204;-4.130;2023-03-26T04:12:21;9.60;99.90
49765;DHT22;35657;51.204;-4.130;2023-03-26T04:14:47;9.60;99.90
49765;DHT22;35657;51.204;-4.130;2023-03-26T04:17:13;9.60;99.90
49765;DHT22;35657;51.204;-4.130;2023-03-26T04:19:40;9.60;99.90
49765;DHT22;35657;51.204;-4.130;2023-03-26T04:22:05;9.70;99.90
49765;DHT22;35657;51.204;-4.130;2023-03-26T04:24:32;9.80;99.90
49765;DHT22;35657;51.204;-4.130;2023-03-26T04:27:10;9.80;99.90
49765;DHT22;35657;51.204;-4.130;2023-03-26T04:29:40;9.80;99.90
49765;DHT22;35657;51.204;-4.130;2023-03-26T04:32:21;9.70;99.90
49765;DHT22;35657;51.204;-4.130;2023-03-26T04:34:49;9.70;99.90
49765;DHT22;35657;51.204;-4.130;2023-03-26T04:37:31;9.80;99.90
49765;DHT22;35657;51.204;-4.130;2023-03-26T04:40:00;9.80;99.90
49765;DHT22;35657;51.204;-4.130;2023-03-26T04:42:27;9.80;99.90
49765;DHT22;35657;51.204;-4.130;2023-03-26T04:44:53;9.80;99.90
49765;DHT22;35657;51.204;-4.130;2023-03-26T04:47:19;9.70;99.90
49765;DHT22;35657;51.204;-4.130;2023-03-26T04:49:45;9.60;99.90
49765;DHT22;35657;51.204;-4.130;2023-03-26T04:52:12;9.60;99.90
49765;DHT22;35657;51.204;-4.130;2023-03-26T04:54:38;9.60;99.90
49765;DHT22;35657;51.204;-4.130;2023-03-26T04:57:16;9.50;99.90
49765;DHT22;35657;51.204;-4.130;2023-03-26T04:59:43;9.40;99.90
49765;DHT22;35657;51.204;-4.130;2023-03-26T05:02:10;9.40;99.90
49765;DHT22;35657;51.204;-4.130;2023-03-26T05:04:37;9.50;99.90
49765;DHT22;35657;51.204;-4.130;2023-03-26T05:07:10;9.50;99.90
49765;DHT22;35657;51.204;-4.130;2023-03-26T05:09:36;9.50;99.90
49765;DHT22;35657;51.204;-4.130;2023-03-26T05:12:02;9.50;99.90
49765;DHT22;35657;51.204;-4.130;2023-03-26T05:14:28;9.50;99.90
49765;DHT22;35657;51.204;-4.130;2023-03-26T05:16:54;9.50;99.90
49765;DHT22;35657;51.204;-4.130;2023-03-26T05:19:19;9.50;99.90
49765;DHT22;35657;51.204;-4.130;2023-03-26T05:21:45;9.50;99.90
49765;DHT22;35657;51.204;-4.130;2023-03-26T05:24:11;9.50;99.90
49765;DHT22;35657;51.204;-4.130;2023-03-26T05:26:37;9.50;99.90
49765;DHT22;35657;51.204;-4.130;2023-03-26T05:29:03;9.50;99.90
49765;DHT22;35657;51.204;-4.130;2023-03-26T05:31:29;9.40;99.90
49765;DHT22;35657;51.204;-4.130;2023-03-26T05:33:56;9.40;99.90
49765;DHT22;35657;51.204;-4.130;2023-03-26T05:36:23;9.40;99.90
49765;DHT22;35657;51.204;-4.130;2023-03-26T05:38:49;9.40;99.90
49765;DHT22;35657;51.204;-4.130;2023-03-26T05:41:16;9.40;99.90
49765;DHT22;35657;51.204;-4.130;2023-03-26T05:43:42;9.40;99.90
49765;DHT22;35657;51.204;-4.130;2023-03-26T05:46:10;9.40;99.90
49765;DHT22;35657;51.204;-4.130;2023-03-26T05:48:36;9.40;99.90
49765;DHT22;35657;51.204;-4.130;2023-03-26T05:51:03;9.40;99.90
49765;DHT22;35657;51.204;-4.130;2023-03-26T05:53:29;9.40;99.90
49765;DHT22;35657;51.204;-4.130;2023-03-26T05:55:55;9.40;99.90
49765;DHT22;35657;51.204;-4.130;2023-03-26T05:58:29;9.50;99.90
49765;DHT22;35657;51.204;-4.130;2023-03-26T06:01:00;9.50;99.90
49765;DHT22;35657;51.204;-4.130;2023-03-26T06:03:30;9.50;99.90
49765;DHT22;35657;51.204;-4.130;2023-03-26T06:05:56;9.60;99.90
49765;DHT22;35657;51.204;-4.130;2023-03-26T06:08:22;9.60;99.90
49765;DHT22;35657;51.204;-4.130;2023-03-26T06:10:48;9.60;99.90
49765;DHT22;35657;51.204;-4.130;2023-03-26T06:13:15;9.50;99.90
49765;DHT22;35657;51.204;-4.130;2023-03-26T06:15:42;9.60;99.90
49765;DHT22;35657;51.204;-4.130;2023-03-26T06:18:07;9.60;99.90
49765;DHT22;35657;51.204;-4.130;2023-03-26T06:20:33;9.70;99.90
49765;DHT22;35657;51.204;-4.130;2023-03-26T06:22:59;9.70;99.90
49765;DHT22;35657;51.204;-4.130;2023-03-26T06:25:25;9.60;99.90
49765;DHT22;35657;51.204;-4.130;2023-03-26T06:27:50;9.60;99.90
49765;DHT22;35657;51.204;-4.130;2023-03-26T06:30:16;9.50;99.90
49765;DHT22;35657;51.204;-4.130;2023-03-26T06:32:42;9.40;99.90
49765;DHT22;35657;51.204;-4.130;2023-03-26T06:35:07;9.40;99.90
49765;DHT22;35657;51.204;-4.130;2023-03-26T06:37:33;9.40;99.90
49765;DHT22;35657;51.204;-4.130;2023-03-26T06:39:59;9.40;99.90
49765;DHT22;35657;51.204;-4.130;2023-03-26T06:42:25;9.40;99.90
49765;DHT22;35657;51.204;-4.130;2023-03-26T06:44:51;9.40;99.90
49765;DHT22;35657;51.204;-4.130;2023-03-26T06:47:16;9.40;99.90
49765;DHT22;35657;51.204;-4.130;2023-03-26T06:49:42;9.40;99.90
49765;DHT22;35657;51.204;-4.130;2023-03-26T06:52:08;9.40;99.90
49765;DHT22;35657;51.204;-4.130;2023-03-26T06:54:33;9.40;99.90
49765;DHT22;35657;51.204;-4.130;2023-03-26T06:56:59;9.40;99.90
49765;DHT22;35657;51.204;-4.130;2023-03-26T06:59:25;9.40;99.90
49765;DHT22;35657;51.204;-4.130;2023-03-26T07:01:50;9.50;99.90
49765;DHT22;35657;51.204;-4.130;2023-03-26T07:04:16;9.40;99.90
49765;DHT22;35657;51.204;-4.130;2023-03-26T07:06:42;9.40;99.90
49765;DHT22;35657;51.204;-4.130;2023-03-26T07:09:08;9.40;99.90
49765;DHT22;35657;51.204;-4.130;2023-03-26T07:11:33;9.40;99.90
49765;DHT22;35657;51.204;-4.130;2023-03-26T07:13:59;9.40;99.90
49765;DHT22;35657;51.204;-4.130;2023-03-26T07:16:25;9.50;99.90
49765;DHT22;35657;51.204;-4.130;2023-03-26T07:18:51;9.50;99.90
49765;DHT22;35657;51.204;-4.130;2023-03-26T07:21:19;9.50;99.90
49765;DHT22;35657;51.204;-4.130;2023-03-26T07:23:47;9.50;99.90
49765;DHT22;35657;51.204;-4.130;2023-03-26T07:26:37;9.50;99.90
49765;DHT22;35657;51.204;-4.130;2023-03-26T07:29:20;9.50;99.90
49765;DHT22;35657;51.204;-4.130;2023-03-26T07:37:59;9.60;99.90
49765;DHT22;35657;51.204;-4.130;2023-03-26T07:45:42;9.90;99.90
49765;DHT22;35657;51.204;-4.130;2023-03-26T07:48:23;9.90;99.90
49765;DHT22;35657;51.204;-4.130;2023-03-26T07:50:53;9.60;99.90
49765;DHT22;35657;51.204;-4.130;2023-03-26T07:53:19;9.40;99.90
49765;DHT22;35657;51.204;-4.130;2023-03-26T07:58:35;9.60;99.90
49765;DHT22;35657;51.204;-4.130;2023-03-26T08:01:15;9.50;99.90
49765;DHT22;35657;51.204;-4.130;2023-03-26T08:08:56;9.20;99.90
49765;DHT22;35657;51.204;-4.130;2023-03-26T08:11:37;9.30;99.90
49765;DHT22;35657;51.204;-4.130;2023-03-26T08:17:08;9.20;99.90
49765;DHT22;35657;51.204;-4.130;2023-03-26T08:19:47;9.00;99.90
49765;DHT22;35657;51.204;-4.130;2023-03-26T08:22:37;9.00;99.90
49765;DHT22;35657;51.204;-4.130;2023-03-26T08:25:27;9.00;99.90
49765;DHT22;35657;51.204;-4.130;2023-03-26T08:30:35;8.90;99.90
49765;DHT22;35657;51.204;-4.130;2023-03-26T08:33:18;8.90;99.90
49765;DHT22;35657;51.204;-4.130;2023-03-26T08:35:45;8.90;99.90
49765;DHT22;35657;51.204;-4.130;2023-03-26T08:38:13;8.90;99.90
49765;DHT22;35657;51.204;-4.130;2023-03-26T09:06:14;9.20;99.90
49765;DHT22;35657;51.204;-4.130;2023-03-26T09:14:51;9.20;99.90
49765;DHT22;35657;51.204;-4.130;2023-03-26T09:23:04;9.30;99.90
49765;DHT22;35657;51.204;-4.130;2023-03-26T09:25:55;9.30;99.90
49765;DHT22;35657;51.204;-4.130;2023-03-26T09:29:28;9.30;99.90
49765;DHT22;35657;51.204;-4.130;2023-03-26T09:34:34;9.20;99.90
49765;DHT22;35657;51.204;-4.130;2023-03-26T09:40:17;9.20;99.90
49765;DHT22;35657;51.204;-4.130;2023-03-26T09:54:08;9.20;99.90
49765;DHT22;35657;51.204;-4.130;2023-03-26T09:59:46;9.10;99.90
49765;DHT22;35657;51.204;-4.130;2023-03-26T10:13:25;8.90;99.90
49765;DHT22;35657;51.204;-4.130;2023-03-26T10:21:27;8.90;99.90
49765;DHT22;35657;51.204;-4.130;2023-03-26T10:40:21;9.70;99.90
49765;DHT22;35657;51.204;-4.130;2023-03-26T10:42:52;9.80;99.90
49765;DHT22;35657;51.204;-4.130;2023-03-26T10:51:03;10.00;99.90
49765;DHT22;35657;51.204;-4.130;2023-03-26T10:53:52;10.00;99.90
49765;DHT22;35657;51.204;-4.130;2023-03-26T10:56:21;10.00;99.90
49765;DHT22;35657;51.204;-4.130;2023-03-26T10:58:48;10.00;99.90
49765;DHT22;35657;51.204;-4.130;2023-03-26T11:04:24;10.10;99.90
49765;DHT22;35657;51.204;-4.130;2023-03-26T11:07:17;10.00;99.90
49765;DHT22;35657;51.204;-4.130;2023-03-26T11:12:38;10.10;99.90
49765;DHT22;35657;51.204;-4.130;2023-03-26T11:15:25;10.30;99.90
49765;DHT22;35657;51.204;-4.130;2023-03-26T11:18:29;10.50;99.90
49765;DHT22;35657;51.204;-4.130;2023-03-26T11:21:03;10.70;99.90
49765;DHT22;35657;51.204;-4.130;2023-03-26T11:26:56;10.90;99.90
49765;DHT22;35657;51.204;-4.130;2023-03-26T11:29:41;10.60;99.90
49765;DHT22;35657;51.204;-4.130;2023-03-26T11:32:13;10.60;99.90
49765;DHT22;35657;51.204;-4.130;2023-03-26T11:34:44;10.60;99.90
49765;DHT22;35657;51.204;-4.130;2023-03-26T11:37:23;10.80;99.90
49765;DHT22;35657;51.204;-4.130;2023-03-26T11:39:53;10.70;99.90
49765;DHT22;35657;51.204;-4.130;2023-03-26T11:42:22;10.70;99.90
49765;DHT22;35657;51.204;-4.130;2023-03-26T11:44:57;10.80;99.90
49765;DHT22;35657;51.204;-4.130;2023-03-26T11:47:45;11.00;99.90
49765;DHT22;35657;51.204;-4.130;2023-03-26T11:50:19;11.00;99.90
49765;DHT22;35657;51.204;-4.130;2023-03-26T11:52:46;11.00;99.90
49765;DHT22;35657;51.204;-4.130;2023-03-26T11:55:12;10.90;99.90
49765;DHT22;35657;51.204;-4.130;2023-03-26T11:57:39;10.80;99.90
49765;DHT22;35657;51.204;-4.130;2023-03-26T12:00:14;11.00;99.90
49765;DHT22;35657;51.204;-4.130;2023-03-26T12:02:42;10.80;99.90
49765;DHT22;35657;51.204;-4.130;2023-03-26T12:05:20;11.00;99.90
49765;DHT22;35657;51.204;-4.130;2023-03-26T12:07:58;11.10;99.90
49765;DHT22;35657;51.204;-4.130;2023-03-26T12:10:34;11.20;99.90
49765;DHT22;35657;51.204;-4.130;2023-03-26T12:16:02;11.20;99.90
49765;DHT22;35657;51.204;-4.130;2023-03-26T12:18:29;11.30;99.90
49765;DHT22;35657;51.204;-4.130;2023-03-26T12:21:13;11.60;99.90
49765;DHT22;35657;51.204;-4.130;2023-03-26T12:23:54;11.80;99.90
49765;DHT22;35657;51.204;-4.130;2023-03-26T12:28:56;11.60;99.90
49765;DHT22;35657;51.204;-4.130;2023-03-26T12:31:27;11.30;99.90
49765;DHT22;35657;51.204;-4.130;2023-03-26T12:34:16;11.50;99.90
49765;DHT22;35657;51.204;-4.130;2023-03-26T12:36:54;11.90;99.90
49765;DHT22;35657;51.204;-4.130;2023-03-26T12:39:34;12.00;99.90
49765;DHT22;35657;51.204;-4.130;2023-03-26T12:42:02;12.20;99.90
49765;DHT22;35657;51.204;-4.130;2023-03-26T12:44:37;11.90;99.90
49765;DHT22;35657;51.204;-4.130;2023-03-26T12:47:41;11.90;99.90
49765;DHT22;35657;51.204;-4.130;2023-03-26T12:50:12;11.80;99.90
49765;DHT22;35657;51.204;-4.130;2023-03-26T12:52:54;11.70;99.90
49765;DHT22;35657;51.204;-4.130;2023-03-26T12:55:48;11.70;99.90
49765;DHT22;35657;51.204;-4.130;2023-03-26T12:58:53;12.10;99.90
49765;DHT22;35657;51.204;-4.130;2023-03-26T13:04:32;11.80;99.90
49765;DHT22;35657;51.204;-4.130;2023-03-26T13:13:08;12.10;99.90
49765;DHT22;35657;51.204;-4.130;2023-03-26T13:15:44;12.20;99.90
49765;DHT22;35657;51.204;-4.130;2023-03-26T13:18:26;12.30;99.90
49765;DHT22;35657;51.204;-4.130;2023-03-26T13:32:15;12.40;99.90
49765;DHT22;35657;51.204;-4.130;2023-03-26T13:42:47;12.40;99.90
49765;DHT22;35657;51.204;-4.130;2023-03-26T13:48:18;12.00;99.90
49765;DHT22;35657;51.204;-4.130;2023-03-26T13:50:57;11.80;99.90
49765;DHT22;35657;51.204;-4.130;2023-03-26T13:53:29;11.60;99.90
49765;DHT22;35657;51.204;-4.130;2023-03-26T13:55:59;11.40;99.90
49765;DHT22;35657;51.204;-4.130;2023-03-26T13:58:40;11.20;99.90
49765;DHT22;35657;51.204;-4.130;2023-03-26T14:03:58;11.00;99.90
49765;DHT22;35657;51.204;-4.130;2023-03-26T14:06:48;10.90;99.90
49765;DHT22;35657;51.204;-4.130;2023-03-26T14:09:45;10.80;99.90
49765;DHT22;35657;51.204;-4.130;2023-03-26T14:15:48;10.70;99.90
49765;DHT22;35657;51.204;-4.130;2023-03-26T14:20:49;10.70;99.90
49765;DHT22;35657;51.204;-4.130;2023-03-26T14:26:11;10.80;99.90
49765;DHT22;35657;51.204;-4.130;2023-03-26T14:53:51;10.60;99.90
49765;DHT22;35657;51.204;-4.130;2023-03-26T15:16:11;10.90;99.90
49765;DHT22;35657;51.204;-4.130;2023-03-26T15:21:26;10.70;99.90
49765;DHT22;35657;51.204;-4.130;2023-03-26T15:24:24;10.60;99.90
49765;DHT22;35657;51.204;-4.130;2023-03-26T15:35:52;10.80;99.90
49765;DHT22;35657;51.204;-4.130;2023-03-26T15:41:17;10.80;99.90
49765;DHT22;35657;51.204;-4.130;2023-03-26T15:46:23;11.00;99.90
49765;DHT22;35657;51.204;-4.130;2023-03-26T15:51:49;11.00;99.90
49765;DHT22;35657;51.204;-4.130;2023-03-26T15:54:21;11.00;99.90
49765;DHT22;35657;51.204;-4.130;2023-03-26T15:56:57;11.00;99.90
49765;DHT22;35657;51.204;-4.130;2023-03-26T16:04:41;10.90;99.90
49765;DHT22;35657;51.204;-4.130;2023-03-26T16:10:44;10.90;99.90
49765;DHT22;35657;51.204;-4.130;2023-03-26T16:15:37;11.10;99.90
49765;DHT22;35657;51.204;-4.130;2023-03-26T16:23:23;11.10;99.90
49765;DHT22;35657;51.204;-4.130;2023-03-26T16:26:10;11.10;99.90
49765;DHT22;35657;51.204;-4.130;2023-03-26T16:29:05;11.10;99.90
49765;DHT22;35657;51.204;-4.130;2023-03-26T16:34:26;11.30;99.90
49765;DHT22;35657;51.204;-4.130;2023-03-26T16:36:53;11.20;99.90
49765;DHT22;35657;51.204;-4.130;2023-03-26T16:39:36;11.20;99.90
49765;DHT22;35657;51.204;-4.130;2023-03-26T16:55:58;11.30;99.90
49765;DHT22;35657;51.204;-4.130;2023-03-26T17:04:05;11.30;99.90
49765;DHT22;35657;51.204;-4.130;2023-03-26T17:12:16;10.90;99.90
49765;DHT22;35657;51.204;-4.130;2023-03-26T17:26:10;11.60;99.90
49765;DHT22;35657;51.204;-4.130;2023-03-26T17:28:49;11.70;99.90
49765;DHT22;35657;51.204;-4.130;2023-03-26T17:37:31;11.50;99.90
49765;DHT22;35657;51.204;-4.130;2023-03-26T17:40:29;11.40;99.90
49765;DHT22;35657;51.204;-4.130;2023-03-26T17:43:09;11.40;99.90
49765;DHT22;35657;51.204;-4.130;2023-03-26T17:45:38;11.30;99.90
49765;DHT22;35657;51.204;-4.130;2023-03-26T17:48:19;11.30;99.90
49765;DHT22;35657;51.204;-4.130;2023-03-26T17:50:48;11.30;99.90
49765;DHT22;35657;51.204;-4.130;2023-03-26T17:53:26;11.20;99.90
49765;DHT22;35657;51.204;-4.130;2023-03-26T17:55:54;11.20;99.90
49765;DHT22;35657;51.204;-4.130;2023-03-26T17:58:28;11.20;99.90
49765;DHT22;35657;51.204;-4.130;2023-03-26T18:03:55;11.20;99.90
49765;DHT22;35657;51.204;-4.130;2023-03-26T18:17:10;11.00;99.90
49765;DHT22;35657;51.204;-4.130;2023-03-26T18:19:52;11.00;99.90
49765;DHT22;35657;51.204;-4.130;2023-03-26T18:22:29;11.00;99.90
49765;DHT22;35657;51.204;-4.130;2023-03-26T18:25:02;11.00;99.90
49765;DHT22;35657;51.204;-4.130;2023-03-26T18:27:34;11.00;99.90
49765;DHT22;35657;51.204;-4.130;2023-03-26T18:30:08;10.90;99.90
49765;DHT22;35657;51.204;-4.130;2023-03-26T18:32:48;10.90;99.90
49765;DHT22;35657;51.204;-4.130;2023-03-26T18:35:17;10.90;99.90
49765;DHT22;35657;51.204;-4.130;2023-03-26T18:37:45;10.90;99.90
49765;DHT22;35657;51.204;-4.130;2023-03-26T18:40:18;11.00;99.90
49765;DHT22;35657;51.204;-4.130;2023-03-26T18:42:54;11.10;99.90
49765;DHT22;35657;51.204;-4.130;2023-03-26T18:45:27;11.20;99.90
49765;DHT22;35657;51.204;-4.130;2023-03-26T18:48:00;11.20;99.90
49765;DHT22;35657;51.204;-4.130;2023-03-26T18:50:30;11.10;99.90
49765;DHT22;35657;51.204;-4.130;2023-03-26T18:52:59;11.20;99.90
49765;DHT22;35657;51.204;-4.130;2023-03-26T18:55:27;11.10;99.90
49765;DHT22;35657;51.204;-4.130;2023-03-26T18:57:53;10.90;99.90
49765;DHT22;35657;51.204;-4.130;2023-03-26T19:00:23;10.70;99.90
49765;DHT22;35657;51.204;-4.130;2023-03-26T19:03:04;10.70;99.90
49765;DHT22;35657;51.204;-4.130;2023-03-26T19:05:32;10.90;99.90
49765;DHT22;35657;51.204;-4.130;2023-03-26T19:08:00;10.90;99.90
49765;DHT22;35657;51.204;-4.130;2023-03-26T19:10:28;10.90;99.90
49765;DHT22;35657;51.204;-4.130;2023-03-26T19:13:00;10.80;99.90
49765;DHT22;35657;51.204;-4.130;2023-03-26T19:15:31;10.80;99.90
49765;DHT22;35657;51.204;-4.130;2023-03-26T19:18:04;10.70;99.90
49765;DHT22;35657;51.204;-4.130;2023-03-26T19:20:47;10.70;99.90
49765;DHT22;35657;51.204;-4.130;2023-03-26T19:23:18;10.70;99.90
49765;DHT22;35657;51.204;-4.130;2023-03-26T19:25:47;10.70;99.90
49765;DHT22;35657;51.204;-4.130;2023-03-26T19:28:26;10.60;99.90
49765;DHT22;35657;51.204;-4.130;2023-03-26T19:30:58;10.60;99.90
49765;DHT22;35657;51.204;-4.130;2023-03-26T19:33:36;10.60;99.90
49765;DHT22;35657;51.204;-4.130;2023-03-26T19:36:23;10.50;99.90
49765;DHT22;35657;51.204;-4.130;2023-03-26T19:41:37;10.50;99.90
49765;DHT22;35657;51.204;-4.130;2023-03-26T19:46:44;10.40;99.90
49765;DHT22;35657;51.204;-4.130;2023-03-26T19:49:29;10.30;99.90
49765;DHT22;35657;51.204;-4.130;2023-03-26T19:52:08;10.30;99.90
49765;DHT22;35657;51.204;-4.130;2023-03-26T19:54:51;10.30;99.90
49765;DHT22;35657;51.204;-4.130;2023-03-26T19:57:19;10.20;99.90
49765;DHT22;35657;51.204;-4.130;2023-03-26T19:59:46;10.30;99.90
49765;DHT22;35657;51.204;-4.130;2023-03-26T20:02:12;10.20;99.90
49765;DHT22;35657;51.204;-4.130;2023-03-26T20:04:39;10.20;99.90
49765;DHT22;35657;51.204;-4.130;2023-03-26T20:07:15;10.20;99.90
49765;DHT22;35657;51.204;-4.130;2023-03-26T20:09:41;10.20;99.90
49765;DHT22;35657;51.204;-4.130;2023-03-26T20:12:08;10.30;99.90
49765;DHT22;35657;51.204;-4.130;2023-03-26T20:14:34;10.20;99.90
49765;DHT22;35657;51.204;-4.130;2023-03-26T20:17:00;10.20;99.90
49765;DHT22;35657;51.204;-4.130;2023-03-26T20:19:26;10.10;99.90
49765;DHT22;35657;51.204;-4.130;2023-03-26T20:21:54;10.20;99.90
49765;DHT22;35657;51.204;-4.130;2023-03-26T20:24:20;10.10;99.90
49765;DHT22;35657;51.204;-4.130;2023-03-26T20:26:46;10.00;99.90
49765;DHT22;35657;51.204;-4.130;2023-03-26T20:29:14;10.00;99.90
49765;DHT22;35657;51.204;-4.130;2023-03-26T20:31:40;10.00;99.90
49765;DHT22;35657;51.204;-4.130;2023-03-26T20:34:22;10.00;99.90
49765;DHT22;35657;51.204;-4.130;2023-03-26T20:36:49;10.00;99.90
49765;DHT22;35657;51.204;-4.130;2023-03-26T20:39:24;10.10;99.90
49765;DHT22;35657;51.204;-4.130;2023-03-26T20:41:51;10.00;99.90
49765;DHT22;35657;51.204;-4.130;2023-03-26T20:44:18;9.90;99.90
49765;DHT22;35657;51.204;-4.130;2023-03-26T20:46:46;9.90;99.90
49765;DHT22;35657;51.204;-4.130;2023-03-26T20:49:12;9.90;99.90
49765;DHT22;35657;51.204;-4.130;2023-03-26T20:51:39;9.90;99.90
49765;DHT22;35657;51.204;-4.130;2023-03-26T20:54:16;10.00;99.90
49765;DHT22;35657;51.204;-4.130;2023-03-26T20:56:42;9.90;99.90
49765;DHT22;35657;51.204;-4.130;2023-03-26T20:59:09;9.90;99.90
49765;DHT22;35657;51.204;-4.130;2023-03-26T21:01:34;9.80;99.90
49765;DHT22;35657;51.204;-4.130;2023-03-26T21:04:02;9.80;99.90
49765;DHT22;35657;51.204;-4.130;2023-03-26T21:06:28;9.80;99.90
49765;DHT22;35657;51.204;-4.130;2023-03-26T21:08:54;9.80;99.90
49765;DHT22;35657;51.204;-4.130;2023-03-26T21:11:54;9.70;99.90
49765;DHT22;35657;51.204;-4.130;2023-03-26T21:14:30;9.70;99.90
49765;DHT22;35657;51.204;-4.130;2023-03-26T21:16:57;9.80;99.90
49765;DHT22;35657;51.204;-4.130;2023-03-26T21:19:23;9.70;99.90
49765;DHT22;35657;51.204;-4.130;2023-03-26T21:22:02;9.70;99.90
49765;DHT22;35657;51.204;-4.130;2023-03-26T21:27:07;9.80;99.90
49765;DHT22;35657;51.204;-4.130;2023-03-26T21:29:35;9.80;99.90
49765;DHT22;35657;51.204;-4.130;2023-03-26T21:32:02;9.70;99.90
49765;DHT22;35657;51.204;-4.130;2023-03-26T21:34:29;9.60;99.90
49765;DHT22;35657;51.204;-4.130;2023-03-26T21:36:59;9.60;99.90
49765;DHT22;35657;51.204;-4.130;2023-03-26T21:39:26;9.60;99.90